CCM49LK LFML-LFKB
Flight info
| Callsign | CCM49LK |
|---|---|
| Flight time | N/A |
| Altitude | 25000 |
| Route | NASIK P856 RAPED DCT DIVUL P856 NIRDO |
| Aircraft | A320/M-SDE3FGHIRWY/LB1 |
Departure
| Time | 2026-04-30 14:52 |
|---|---|
| Airport | Marseille Provence Airport (LFML) |
Arrival
| Time | N/A |
|---|---|
| Airport | Bastia-Poretta International airport (LFKB) |
| Time | Latitude | Longitude | Altitude | Speed | Heading |
|---|---|---|---|---|---|
| 2026-04-30 14:34 | 43.43850 | 5.22479 | 46 ft | 0 kts | 309° |
| 2026-04-30 14:44 | 43.43849 | 5.22481 | 48 ft | 2 kts | 309° |
| 2026-04-30 14:45 | 43.43839 | 5.22497 | 45 ft | 4 kts | 308° |
| 2026-04-30 14:45 | 43.43826 | 5.22528 | 45 ft | 4 kts | 277° |
| 2026-04-30 14:45 | 43.43833 | 5.22555 | 47 ft | 1 kts | 208° |
| 2026-04-30 14:45 | 43.43836 | 5.22558 | 46 ft | 1 kts | 208° |
| 2026-04-30 14:47 | 43.43821 | 5.22546 | 48 ft | 6 kts | 208° |
| 2026-04-30 14:48 | 43.43771 | 5.22496 | 49 ft | 12 kts | 236° |
| 2026-04-30 14:48 | 43.43749 | 5.22407 | 47 ft | 17 kts | 248° |
| 2026-04-30 14:48 | 43.43732 | 5.22232 | 46 ft | 19 kts | 261° |
| 2026-04-30 14:48 | 43.43646 | 5.22112 | 44 ft | 18 kts | 176° |
| 2026-04-30 14:49 | 43.43544 | 5.22182 | 49 ft | 15 kts | 151° |
| 2026-04-30 14:49 | 43.43465 | 5.22243 | 49 ft | 11 kts | 150° |
| 2026-04-30 14:49 | 43.43404 | 5.22285 | 53 ft | 8 kts | 158° |
| 2026-04-30 14:49 | 43.43343 | 5.22320 | 55 ft | 11 kts | 156° |
| 2026-04-30 14:50 | 43.43209 | 5.22497 | 57 ft | 16 kts | 134° |
| 2026-04-30 14:50 | 43.43125 | 5.22617 | 60 ft | 19 kts | 134° |
| 2026-04-30 14:51 | 43.42908 | 5.22926 | 67 ft | 25 kts | 134° |
| 2026-04-30 14:51 | 43.42775 | 5.22900 | 68 ft | 21 kts | 221° |
| 2026-04-30 14:51 | 43.42785 | 5.22764 | 68 ft | 1 kts | 311° |
| 2026-04-30 14:52 | 43.42968 | 5.22499 | 65 ft | 75 kts | 314° |
| 2026-04-30 14:52 | 43.44207 | 5.20709 | 309 ft | 160 kts | 312° |
| 2026-04-30 14:52 | 43.44982 | 5.19538 | 772 ft | 170 kts | 313° |
| 2026-04-30 14:53 | 43.46786 | 5.16960 | 1299 ft | 210 kts | 315° |
| 2026-04-30 14:53 | 43.47875 | 5.15459 | 1491 ft | 231 kts | 316° |
| 2026-04-30 14:54 | 43.50198 | 5.12303 | 2789 ft | 235 kts | 317° |
| 2026-04-30 14:54 | 43.52549 | 5.09132 | 4008 ft | 238 kts | 316° |
| 2026-04-30 14:55 | 43.54986 | 5.05971 | 5308 ft | 242 kts | 328° |
| 2026-04-30 14:55 | 43.56521 | 5.05071 | 5886 ft | 241 kts | 352° |
| 2026-04-30 14:55 | 43.59694 | 5.05908 | 7076 ft | 236 kts | 37° |
| 2026-04-30 14:56 | 43.61559 | 5.09480 | 8164 ft | 234 kts | 78° |
| 2026-04-30 14:56 | 43.61137 | 5.13846 | 9085 ft | 237 kts | 122° |
| 2026-04-30 14:57 | 43.60261 | 5.15783 | 9579 ft | 241 kts | 123° |
| 2026-04-30 14:57 | 43.58434 | 5.19800 | 10645 ft | 251 kts | 123° |
| 2026-04-30 14:58 | 43.56570 | 5.23906 | 11627 ft | 255 kts | 123° |
| 2026-04-30 14:58 | 43.55628 | 5.25986 | 12072 ft | 256 kts | 123° |
| 2026-04-30 14:58 | 43.53718 | 5.30193 | 12921 ft | 261 kts | 124° |
| 2026-04-30 14:59 | 43.52107 | 5.33738 | 13615 ft | 265 kts | 123° |
| 2026-04-30 15:00 | 43.49451 | 5.41704 | 14384 ft | 293 kts | 111° |
| 2026-04-30 15:00 | 43.48053 | 5.47149 | 14628 ft | 314 kts | 111° |
| 2026-04-30 15:01 | 43.46556 | 5.52940 | 14857 ft | 328 kts | 110° |
| 2026-04-30 15:01 | 43.45783 | 5.55919 | 14989 ft | 333 kts | 111° |
| 2026-04-30 15:01 | 43.44195 | 5.62010 | 15223 ft | 342 kts | 111° |
| 2026-04-30 15:02 | 43.43386 | 5.65106 | 15348 ft | 345 kts | 111° |
| 2026-04-30 15:02 | 43.42566 | 5.68235 | 15470 ft | 348 kts | 110° |
| 2026-04-30 15:03 | 43.41481 | 5.78096 | 15840 ft | 354 kts | 86° |
| 2026-04-30 15:03 | 43.41741 | 5.84892 | 16087 ft | 357 kts | 87° |
| 2026-04-30 15:04 | 43.41964 | 5.91740 | 16339 ft | 359 kts | 87° |
| 2026-04-30 15:04 | 43.42297 | 6.02080 | 16722 ft | 363 kts | 87° |
| 2026-04-30 15:05 | 43.42637 | 6.12527 | 17103 ft | 364 kts | 85° |
| 2026-04-30 15:06 | 43.42857 | 6.19483 | 17363 ft | 364 kts | 86° |
| 2026-04-30 15:06 | 43.43038 | 6.26461 | 17621 ft | 365 kts | 91° |
| 2026-04-30 15:07 | 43.42484 | 6.33424 | 17879 ft | 366 kts | 96° |
| 2026-04-30 15:07 | 43.41861 | 6.40321 | 18142 ft | 365 kts | 96° |
| 2026-04-30 15:08 | 43.41233 | 6.47256 | 18417 ft | 366 kts | 96° |
| 2026-04-30 15:08 | 43.40280 | 6.57706 | 18776 ft | 367 kts | 96° |
| 2026-04-30 15:09 | 43.39642 | 6.64672 | 19002 ft | 367 kts | 96° |
| 2026-04-30 15:09 | 43.38995 | 6.71660 | 19247 ft | 368 kts | 96° |
| 2026-04-30 15:10 | 43.38343 | 6.78634 | 19483 ft | 368 kts | 97° |
| 2026-04-30 15:11 | 43.37023 | 6.92605 | 19966 ft | 369 kts | 96° |
| 2026-04-30 15:11 | 43.36357 | 6.99605 | 20202 ft | 370 kts | 95° |
| 2026-04-30 15:12 | 43.35344 | 7.10096 | 20571 ft | 370 kts | 96° |
| 2026-04-30 15:13 | 43.34665 | 7.17109 | 20806 ft | 370 kts | 96° |
| 2026-04-30 15:14 | 43.33290 | 7.31152 | 21296 ft | 370 kts | 96° |
| 2026-04-30 15:14 | 43.32248 | 7.41679 | 21668 ft | 371 kts | 97° |
| 2026-04-30 15:16 | 43.30494 | 7.59178 | 22323 ft | 371 kts | 96° |
| 2026-04-30 15:17 | 43.28146 | 7.72985 | 22854 ft | 371 kts | 103° |
| 2026-04-30 15:18 | 43.24912 | 7.90060 | 23526 ft | 370 kts | 103° |
| 2026-04-30 15:19 | 43.22941 | 8.00286 | 23908 ft | 369 kts | 103° |